sensor_id;sensor_type;location;lat;lon;timestamp;pressure;altitude;pressure_sealevel;temperature;humidity
81057;BME280;70563;50.084;14.468;2024-01-16T00:00:35;97312.72;;;-0.79;75.90
81057;BME280;70563;50.084;14.468;2024-01-16T00:03:00;97311.47;;;-0.75;75.74
81057;BME280;70563;50.084;14.468;2024-01-16T00:05:26;97322.75;;;-0.66;75.55
81057;BME280;70563;50.084;14.468;2024-01-16T00:07:51;97333.28;;;-0.68;75.74
81057;BME280;70563;50.084;14.468;2024-01-16T00:10:16;97331.50;;;-0.67;76.00
81057;BME280;70563;50.084;14.468;2024-01-16T00:12:42;97330.16;;;-0.71;76.04
81057;BME280;70563;50.084;14.468;2024-01-16T00:15:08;97331.78;;;-0.70;76.32
81057;BME280;70563;50.084;14.468;2024-01-16T00:17:34;97335.72;;;-0.66;75.86
81057;BME280;70563;50.084;14.468;2024-01-16T00:19:59;97340.53;;;-0.71;75.78
81057;BME280;70563;50.084;14.468;2024-01-16T00:22:28;97336.75;;;-0.77;75.57
81057;BME280;70563;50.084;14.468;2024-01-16T00:24:54;97343.84;;;-0.79;74.83
81057;BME280;70563;50.084;14.468;2024-01-16T00:27:19;97318.44;;;-0.76;73.46
81057;BME280;70563;50.084;14.468;2024-01-16T00:29:45;97345.28;;;-0.67;73.56
81057;BME280;70563;50.084;14.468;2024-01-16T00:32:10;97342.03;;;-0.69;73.42
81057;BME280;70563;50.084;14.468;2024-01-16T00:34:36;97337.56;;;-0.77;72.59
81057;BME280;70563;50.084;14.468;2024-01-16T00:37:01;97339.81;;;-0.64;71.76
81057;BME280;70563;50.084;14.468;2024-01-16T00:39:26;97349.28;;;-0.55;70.72
81057;BME280;70563;50.084;14.468;2024-01-16T00:41:52;97341.81;;;-0.58;70.32
81057;BME280;70563;50.084;14.468;2024-01-16T00:44:17;97341.06;;;-0.50;69.39
81057;BME280;70563;50.084;14.468;2024-01-16T00:46:43;97343.66;;;-0.50;68.38
81057;BME280;70563;50.084;14.468;2024-01-16T00:49:08;97354.03;;;-0.50;68.37
81057;BME280;70563;50.084;14.468;2024-01-16T00:51:33;97357.44;;;-0.49;68.33
81057;BME280;70563;50.084;14.468;2024-01-16T00:53:59;97350.47;;;-0.49;67.84
81057;BME280;70563;50.084;14.468;2024-01-16T00:56:24;97358.53;;;-0.52;67.94
81057;BME280;70563;50.084;14.468;2024-01-16T00:58:52;97352.31;;;-0.59;67.10
81057;BME280;70563;50.084;14.468;2024-01-16T01:01:19;97369.41;;;-0.66;67.98
81057;BME280;70563;50.084;14.468;2024-01-16T01:03:44;97382.59;;;-0.78;67.57
81057;BME280;70563;50.084;14.468;2024-01-16T01:06:10;97383.69;;;-0.80;67.70
81057;BME280;70563;50.084;14.468;2024-01-16T01:08:35;97385.88;;;-0.85;67.76
81057;BME280;70563;50.084;14.468;2024-01-16T01:11:00;97393.41;;;-0.92;68.21
81057;BME280;70563;50.084;14.468;2024-01-16T01:13:26;97390.81;;;-0.92;67.67
81057;BME280;70563;50.084;14.468;2024-01-16T01:15:51;97409.06;;;-0.84;67.41
81057;BME280;70563;50.084;14.468;2024-01-16T01:18:16;97406.03;;;-0.79;67.40
81057;BME280;70563;50.084;14.468;2024-01-16T01:20:42;97396.78;;;-0.82;67.77
81057;BME280;70563;50.084;14.468;2024-01-16T01:23:07;97404.31;;;-0.88;68.00
81057;BME280;70563;50.084;14.468;2024-01-16T01:25:33;97410.19;;;-0.86;67.38
81057;BME280;70563;50.084;14.468;2024-01-16T01:27:58;97406.38;;;-0.92;68.46
81057;BME280;70563;50.084;14.468;2024-01-16T01:30:23;97413.16;;;-0.91;68.06
81057;BME280;70563;50.084;14.468;2024-01-16T01:32:49;97400.09;;;-0.89;68.57
81057;BME280;70563;50.084;14.468;2024-01-16T01:35:17;97412.34;;;-0.91;69.48
81057;BME280;70563;50.084;14.468;2024-01-16T01:37:42;97417.97;;;-0.96;69.85
81057;BME280;70563;50.084;14.468;2024-01-16T01:40:08;97421.38;;;-0.95;69.71
81057;BME280;70563;50.084;14.468;2024-01-16T01:42:33;97416.19;;;-0.95;69.92
81057;BME280;70563;50.084;14.468;2024-01-16T01:44:59;97409.66;;;-0.99;70.35
81057;BME280;70563;50.084;14.468;2024-01-16T01:47:24;97421.69;;;-0.98;70.41
81057;BME280;70563;50.084;14.468;2024-01-16T01:49:50;97418.13;;;-0.97;70.55
81057;BME280;70563;50.084;14.468;2024-01-16T01:52:17;97415.97;;;-1.02;70.64
81057;BME280;70563;50.084;14.468;2024-01-16T01:54:44;97414.56;;;-0.96;70.33
81057;BME280;70563;50.084;14.468;2024-01-16T01:57:10;97427.78;;;-0.90;70.18
81057;BME280;70563;50.084;14.468;2024-01-16T01:59:36;97436.91;;;-0.95;70.61
81057;BME280;70563;50.084;14.468;2024-01-16T02:02:02;97437.47;;;-0.92;70.85
81057;BME280;70563;50.084;14.468;2024-01-16T02:04:31;97431.47;;;-0.92;70.55
81057;BME280;70563;50.084;14.468;2024-01-16T02:06:56;97443.88;;;-0.86;70.85
81057;BME280;70563;50.084;14.468;2024-01-16T02:09:22;97440.16;;;-0.84;70.25
81057;BME280;70563;50.084;14.468;2024-01-16T02:11:48;97445.31;;;-0.74;69.45
81057;BME280;70563;50.084;14.468;2024-01-16T02:14:13;97439.84;;;-0.71;70.12
81057;BME280;70563;50.084;14.468;2024-01-16T02:16:42;97445.84;;;-0.70;70.01
81057;BME280;70563;50.084;14.468;2024-01-16T02:19:10;97455.78;;;-0.66;69.87
81057;BME280;70563;50.084;14.468;2024-01-16T02:21:43;97460.25;;;-0.58;69.67
81057;BME280;70563;50.084;14.468;2024-01-16T02:24:11;97463.13;;;-0.61;70.01
81057;BME280;70563;50.084;14.468;2024-01-16T02:26:38;97461.66;;;-0.64;69.77
81057;BME280;70563;50.084;14.468;2024-01-16T02:29:03;97462.91;;;-0.68;70.12
81057;BME280;70563;50.084;14.468;2024-01-16T02:31:30;97468.22;;;-0.69;70.63
81057;BME280;70563;50.084;14.468;2024-01-16T02:33:55;97463.03;;;-0.69;70.25
81057;BME280;70563;50.084;14.468;2024-01-16T02:36:21;97475.72;;;-0.66;70.63
81057;BME280;70563;50.084;14.468;2024-01-16T02:38:46;97478.06;;;-0.73;70.78
81057;BME280;70563;50.084;14.468;2024-01-16T02:41:13;97484.34;;;-0.76;70.96
81057;BME280;70563;50.084;14.468;2024-01-16T02:43:39;97475.44;;;-0.63;70.74
81057;BME280;70563;50.084;14.468;2024-01-16T02:46:04;97479.94;;;-0.65;70.93
81057;BME280;70563;50.084;14.468;2024-01-16T02:48:30;97481.84;;;-0.67;70.60
81057;BME280;70563;50.084;14.468;2024-01-16T02:50:55;97490.03;;;-0.62;71.27
81057;BME280;70563;50.084;14.468;2024-01-16T02:53:21;97487.69;;;-0.65;70.35
81057;BME280;70563;50.084;14.468;2024-01-16T02:55:46;97486.78;;;-0.64;70.93
81057;BME280;70563;50.084;14.468;2024-01-16T02:58:11;97485.13;;;-0.65;71.08
81057;BME280;70563;50.084;14.468;2024-01-16T03:00:37;97494.41;;;-0.63;70.80
81057;BME280;70563;50.084;14.468;2024-01-16T03:03:02;97488.28;;;-0.71;70.56
81057;BME280;70563;50.084;14.468;2024-01-16T03:05:28;97490.91;;;-0.81;70.97
81057;BME280;70563;50.084;14.468;2024-01-16T03:07:53;97492.28;;;-0.77;71.14
81057;BME280;70563;50.084;14.468;2024-01-16T03:10:19;97487.19;;;-0.79;70.70
81057;BME280;70563;50.084;14.468;2024-01-16T03:12:44;97493.34;;;-0.80;70.74
81057;BME280;70563;50.084;14.468;2024-01-16T03:15:09;97492.38;;;-0.79;70.41
81057;BME280;70563;50.084;14.468;2024-01-16T03:17:35;97498.53;;;-0.80;70.55
81057;BME280;70563;50.084;14.468;2024-01-16T03:20:00;97488.94;;;-0.69;70.42
81057;BME280;70563;50.084;14.468;2024-01-16T03:22:28;97494.00;;;-0.68;69.50
81057;BME280;70563;50.084;14.468;2024-01-16T03:24:53;97502.81;;;-0.51;69.28
81057;BME280;70563;50.084;14.468;2024-01-16T03:27:19;97508.81;;;-0.51;69.35
81057;BME280;70563;50.084;14.468;2024-01-16T03:29:45;97513.97;;;-0.41;68.33
81057;BME280;70563;50.084;14.468;2024-01-16T03:32:10;97514.25;;;-0.44;68.72
81057;BME280;70563;50.084;14.468;2024-01-16T03:34:35;97519.31;;;-0.42;68.42
81057;BME280;70563;50.084;14.468;2024-01-16T03:37:01;97531.16;;;-0.40;68.75
81057;BME280;70563;50.084;14.468;2024-01-16T03:39:26;97520.53;;;-0.46;68.79
81057;BME280;70563;50.084;14.468;2024-01-16T03:41:52;97533.34;;;-0.45;69.47
81057;BME280;70563;50.084;14.468;2024-01-16T03:44:17;97530.13;;;-0.57;69.63
81057;BME280;70563;50.084;14.468;2024-01-16T03:46:42;97540.25;;;-0.63;69.60
81057;BME280;70563;50.084;14.468;2024-01-16T03:49:08;97534.50;;;-0.57;69.74
81057;BME280;70563;50.084;14.468;2024-01-16T03:51:33;97553.59;;;-0.58;70.48
81057;BME280;70563;50.084;14.468;2024-01-16T03:53:59;97550.06;;;-0.67;70.57
81057;BME280;70563;50.084;14.468;2024-01-16T03:56:24;97550.22;;;-0.68;70.22
81057;BME280;70563;50.084;14.468;2024-01-16T03:58:49;97546.69;;;-0.77;71.18
81057;BME280;70563;50.084;14.468;2024-01-16T04:01:15;97547.25;;;-0.83;71.19
81057;BME280;70563;50.084;14.468;2024-01-16T04:03:40;97559.97;;;-0.90;71.72
81057;BME280;70563;50.084;14.468;2024-01-16T04:06:18;97553.69;;;-0.97;71.81
81057;BME280;70563;50.084;14.468;2024-01-16T04:08:44;97572.78;;;-0.98;72.30
81057;BME280;70563;50.084;14.468;2024-01-16T04:11:13;97570.59;;;-0.93;72.01
81057;BME280;70563;50.084;14.468;2024-01-16T04:13:39;97573.56;;;-0.88;71.53
81057;BME280;70563;50.084;14.468;2024-01-16T04:16:06;97572.63;;;-0.87;71.82
81057;BME280;70563;50.084;14.468;2024-01-16T04:18:39;97575.63;;;-0.91;71.97
81057;BME280;70563;50.084;14.468;2024-01-16T04:21:05;97577.13;;;-0.89;72.06
81057;BME280;70563;50.084;14.468;2024-01-16T04:23:31;97591.59;;;-0.86;72.01
81057;BME280;70563;50.084;14.468;2024-01-16T04:25:57;97582.28;;;-0.79;71.91
81057;BME280;70563;50.084;14.468;2024-01-16T04:28:22;97596.78;;;-0.77;71.76
81057;BME280;70563;50.084;14.468;2024-01-16T04:30:48;97590.47;;;-0.74;71.72
81057;BME280;70563;50.084;14.468;2024-01-16T04:33:14;97585.00;;;-0.71;71.70
81057;BME280;70563;50.084;14.468;2024-01-16T04:35:39;97599.50;;;-0.68;71.74
81057;BME280;70563;50.084;14.468;2024-01-16T04:38:04;97603.00;;;-0.69;71.78
81057;BME280;70563;50.084;14.468;2024-01-16T04:40:30;97612.88;;;-0.73;71.91
81057;BME280;70563;50.084;14.468;2024-01-16T04:42:55;97608.34;;;-0.71;71.68
81057;BME280;70563;50.084;14.468;2024-01-16T04:45:20;97606.69;;;-0.62;71.23
81057;BME280;70563;50.084;14.468;2024-01-16T04:47:46;97623.88;;;-0.61;71.56
81057;BME280;70563;50.084;14.468;2024-01-16T04:50:11;97612.31;;;-0.67;71.78
81057;BME280;70563;50.084;14.468;2024-01-16T04:52:37;97611.22;;;-0.64;71.81
81057;BME280;70563;50.084;14.468;2024-01-16T04:55:02;97612.03;;;-0.64;71.82
81057;BME280;70563;50.084;14.468;2024-01-16T04:57:28;97610.25;;;-0.63;72.02
81057;BME280;70563;50.084;14.468;2024-01-16T04:59:53;97614.31;;;-0.61;71.68
81057;BME280;70563;50.084;14.468;2024-01-16T05:02:18;97618.44;;;-0.58;71.39
81057;BME280;70563;50.084;14.468;2024-01-16T05:04:44;97622.09;;;-0.61;71.97
81057;BME280;70563;50.084;14.468;2024-01-16T05:07:10;97630.03;;;-0.62;71.66
81057;BME280;70563;50.084;14.468;2024-01-16T05:09:36;97636.03;;;-0.62;71.52
81057;BME280;70563;50.084;14.468;2024-01-16T05:12:01;97641.38;;;-0.63;72.04
81057;BME280;70563;50.084;14.468;2024-01-16T05:14:26;97635.38;;;-0.64;71.53
81057;BME280;70563;50.084;14.468;2024-01-16T05:16:52;97636.19;;;-0.63;71.92
81057;BME280;70563;50.084;14.468;2024-01-16T05:19:18;97636.00;;;-0.52;71.36
81057;BME280;70563;50.084;14.468;2024-01-16T05:21:43;97641.19;;;-0.52;71.17
81057;BME280;70563;50.084;14.468;2024-01-16T05:24:09;97645.56;;;-0.53;71.41
81057;BME280;70563;50.084;14.468;2024-01-16T05:26:34;97649.41;;;-0.47;71.46
81057;BME280;70563;50.084;14.468;2024-01-16T05:29:00;97644.91;;;-0.55;70.88
81057;BME280;70563;50.084;14.468;2024-01-16T05:31:25;97656.50;;;-0.49;71.35
81057;BME280;70563;50.084;14.468;2024-01-16T05:33:51;97659.91;;;-0.48;71.45
81057;BME280;70563;50.084;14.468;2024-01-16T05:36:16;97653.78;;;-0.47;70.99
81057;BME280;70563;50.084;14.468;2024-01-16T05:38:41;97655.09;;;-0.43;71.38
81057;BME280;70563;50.084;14.468;2024-01-16T05:41:07;97659.59;;;-0.36;71.55
81057;BME280;70563;50.084;14.468;2024-01-16T05:43:32;97657.00;;;-0.36;71.05
81057;BME280;70563;50.084;14.468;2024-01-16T05:45:58;97652.78;;;-0.37;71.92
81057;BME280;70563;50.084;14.468;2024-01-16T05:48:23;97664.91;;;-0.28;71.87
81057;BME280;70563;50.084;14.468;2024-01-16T05:50:48;97661.09;;;-0.23;71.19
81057;BME280;70563;50.084;14.468;2024-01-16T05:53:14;97673.91;;;-0.22;71.17
81057;BME280;70563;50.084;14.468;2024-01-16T05:55:39;97672.97;;;-0.31;71.27
81057;BME280;70563;50.084;14.468;2024-01-16T05:58:04;97671.06;;;-0.29;71.31
81057;BME280;70563;50.084;14.468;2024-01-16T06:00:30;97675.97;;;-0.35;71.21
81057;BME280;70563;50.084;14.468;2024-01-16T06:02:55;97680.50;;;-0.37;71.77
81057;BME280;70563;50.084;14.468;2024-01-16T06:05:21;97678.47;;;-0.34;71.99
81057;BME280;70563;50.084;14.468;2024-01-16T06:07:46;97674.06;;;-0.23;72.53
81057;BME280;70563;50.084;14.468;2024-01-16T06:10:13;97679.81;;;-0.39;73.37
81057;BME280;70563;50.084;14.468;2024-01-16T06:12:39;97679.69;;;-0.38;73.35
81057;BME280;70563;50.084;14.468;2024-01-16T06:15:04;97680.91;;;-0.32;73.13
81057;BME280;70563;50.084;14.468;2024-01-16T06:17:30;97679.69;;;-0.38;72.06
81057;BME280;70563;50.084;14.468;2024-01-16T06:19:55;97687.28;;;-0.27;71.88
81057;BME280;70563;50.084;14.468;2024-01-16T06:22:21;97694.38;;;-0.19;71.68
81057;BME280;70563;50.084;14.468;2024-01-16T06:24:46;97687.31;;;-0.17;71.04
81057;BME280;70563;50.084;14.468;2024-01-16T06:27:11;97685.63;;;-0.08;69.71
81057;BME280;70563;50.084;14.468;2024-01-16T06:29:47;97691.66;;;-0.27;70.14
81057;BME280;70563;50.084;14.468;2024-01-16T06:32:13;97691.69;;;-0.37;69.73
81057;BME280;70563;50.084;14.468;2024-01-16T06:34:39;97699.03;;;-0.22;69.72
81057;BME280;70563;50.084;14.468;2024-01-16T06:37:04;97700.69;;;-0.31;69.80
81057;BME280;70563;50.084;14.468;2024-01-16T06:39:30;97709.88;;;-0.56;70.82
81057;BME280;70563;50.084;14.468;2024-01-16T06:41:55;97720.63;;;-0.61;71.81
81057;BME280;70563;50.084;14.468;2024-01-16T06:44:21;97723.38;;;-0.62;71.33
81057;BME280;70563;50.084;14.468;2024-01-16T06:46:46;97726.09;;;-0.54;72.27
81057;BME280;70563;50.084;14.468;2024-01-16T06:49:11;97729.38;;;-0.71;72.26
81057;BME280;70563;50.084;14.468;2024-01-16T06:51:37;97724.44;;;-0.74;72.03
81057;BME280;70563;50.084;14.468;2024-01-16T06:54:02;97730.59;;;-0.76;72.41
81057;BME280;70563;50.084;14.468;2024-01-16T06:56:29;97727.44;;;-0.69;72.55
81057;BME280;70563;50.084;14.468;2024-01-16T06:58:54;97728.00;;;-0.66;71.83
81057;BME280;70563;50.084;14.468;2024-01-16T07:01:20;97733.19;;;-0.76;71.75
81057;BME280;70563;50.084;14.468;2024-01-16T07:03:45;97731.97;;;-0.71;71.24
81057;BME280;70563;50.084;14.468;2024-01-16T07:06:10;97737.97;;;-0.81;72.33
81057;BME280;70563;50.084;14.468;2024-01-16T07:08:37;97747.22;;;-0.88;72.01
81057;BME280;70563;50.084;14.468;2024-01-16T07:11:02;97748.44;;;-0.92;71.60
81057;BME280;70563;50.084;14.468;2024-01-16T07:13:27;97746.50;;;-0.99;72.35
81057;BME280;70563;50.084;14.468;2024-01-16T07:15:53;97744.31;;;-1.04;72.58
81057;BME280;70563;50.084;14.468;2024-01-16T07:18:18;97748.19;;;-0.98;71.62
81057;BME280;70563;50.084;14.468;2024-01-16T07:20:44;97748.28;;;-1.00;72.09
81057;BME280;70563;50.084;14.468;2024-01-16T07:23:11;97756.50;;;-0.95;71.46
81057;BME280;70563;50.084;14.468;2024-01-16T07:25:36;97752.41;;;-0.97;71.38
81057;BME280;70563;50.084;14.468;2024-01-16T07:28:01;97748.56;;;-1.03;71.07
81057;BME280;70563;50.084;14.468;2024-01-16T07:30:27;97762.91;;;-0.99;71.51
81057;BME280;70563;50.084;14.468;2024-01-16T07:32:52;97762.63;;;-0.96;71.01
81057;BME280;70563;50.084;14.468;2024-01-16T07:35:19;97765.22;;;-0.96;71.07
81057;BME280;70563;50.084;14.468;2024-01-16T07:37:44;97768.78;;;-0.87;70.32
81057;BME280;70563;50.084;14.468;2024-01-16T07:40:10;97764.03;;;-0.72;69.96
81057;BME280;70563;50.084;14.468;2024-01-16T07:42:36;97777.56;;;-0.59;68.75
81057;BME280;70563;50.084;14.468;2024-01-16T07:45:02;97770.06;;;-0.43;68.52
81057;BME280;70563;50.084;14.468;2024-01-16T07:47:32;97787.78;;;-0.19;68.07
81057;BME280;70563;50.084;14.468;2024-01-16T07:50:01;97792.16;;;-0.10;66.71
81057;BME280;70563;50.084;14.468;2024-01-16T07:52:27;97780.44;;;-0.23;67.55
81057;BME280;70563;50.084;14.468;2024-01-16T07:54:53;97795.84;;;-0.32;67.28
81057;BME280;70563;50.084;14.468;2024-01-16T07:57:18;97802.81;;;-0.22;66.96
81057;BME280;70563;50.084;14.468;2024-01-16T07:59:44;97800.63;;;0.02;66.29
81057;BME280;70563;50.084;14.468;2024-01-16T08:02:09;97804.97;;;0.11;65.68
81057;BME280;70563;50.084;14.468;2024-01-16T08:04:35;97796.94;;;0.52;65.02
81057;BME280;70563;50.084;14.468;2024-01-16T08:07:00;97792.31;;;0.55;64.59
81057;BME280;70563;50.084;14.468;2024-01-16T08:09:26;97792.78;;;0.31;64.04
81057;BME280;70563;50.084;14.468;2024-01-16T08:11:51;97797.28;;;0.29;64.54
81057;BME280;70563;50.084;14.468;2024-01-16T08:14:17;97813.88;;;0.18;65.01
81057;BME280;70563;50.084;14.468;2024-01-16T08:16:42;97815.63;;;0.28;64.59
81057;BME280;70563;50.084;14.468;2024-01-16T08:19:07;97816.53;;;0.46;64.27
81057;BME280;70563;50.084;14.468;2024-01-16T08:21:33;97818.75;;;0.41;64.51
81057;BME280;70563;50.084;14.468;2024-01-16T08:23:58;97815.88;;;0.44;64.56
81057;BME280;70563;50.084;14.468;2024-01-16T08:26:24;97823.78;;;0.52;63.83
81057;BME280;70563;50.084;14.468;2024-01-16T08:28:49;97824.91;;;0.40;64.13
81057;BME280;70563;50.084;14.468;2024-01-16T08:31:19;97834.88;;;0.35;64.49
81057;BME280;70563;50.084;14.468;2024-01-16T08:33:44;97833.53;;;0.31;63.72
81057;BME280;70563;50.084;14.468;2024-01-16T08:36:10;97831.47;;;0.24;63.38
81057;BME280;70563;50.084;14.468;2024-01-16T08:38:36;97839.97;;;0.27;64.38
81057;BME280;70563;50.084;14.468;2024-01-16T08:41:01;97846.00;;;0.17;64.64
81057;BME280;70563;50.084;14.468;2024-01-16T08:43:28;97850.47;;;0.25;64.66
81057;BME280;70563;50.084;14.468;2024-01-16T08:45:53;97846.94;;;0.73;63.21
81057;BME280;70563;50.084;14.468;2024-01-16T08:48:19;97843.19;;;1.22;61.60
81057;BME280;70563;50.084;14.468;2024-01-16T08:50:44;97859.06;;;0.92;62.34
81057;BME280;70563;50.084;14.468;2024-01-16T08:53:10;97847.59;;;0.85;62.36
81057;BME280;70563;50.084;14.468;2024-01-16T08:55:35;97854.41;;;0.86;62.13
81057;BME280;70563;50.084;14.468;2024-01-16T08:58:01;97853.97;;;1.00;61.67
81057;BME280;70563;50.084;14.468;2024-01-16T09:00:26;97857.09;;;1.04;61.35
81057;BME280;70563;50.084;14.468;2024-01-16T09:02:52;97854.91;;;1.09;61.63
81057;BME280;70563;50.084;14.468;2024-01-16T09:05:17;97853.00;;;1.56;60.26
81057;BME280;70563;50.084;14.468;2024-01-16T09:07:43;97857.88;;;1.59;59.49
81057;BME280;70563;50.084;14.468;2024-01-16T09:10:08;97855.34;;;1.95;58.48
81057;BME280;70563;50.084;14.468;2024-01-16T09:12:34;97858.50;;;1.71;58.34
81057;BME280;70563;50.084;14.468;2024-01-16T09:14:59;97857.78;;;1.79;58.06
81057;BME280;70563;50.084;14.468;2024-01-16T09:17:25;97860.38;;;1.79;58.75
81057;BME280;70563;50.084;14.468;2024-01-16T09:19:53;97857.50;;;1.54;58.50
81057;BME280;70563;50.084;14.468;2024-01-16T09:22:18;97850.31;;;1.66;58.96
81057;BME280;70563;50.084;14.468;2024-01-16T09:24:44;97852.69;;;1.59;58.55
81057;BME280;70563;50.084;14.468;2024-01-16T09:27:09;97866.78;;;2.64;56.62
81057;BME280;70563;50.084;14.468;2024-01-16T09:29:35;97855.50;;;2.37;56.27
81057;BME280;70563;50.084;14.468;2024-01-16T09:32:01;97855.56;;;2.45;57.38
81057;BME280;70563;50.084;14.468;2024-01-16T09:34:26;97852.91;;;2.19;58.57
81057;BME280;70563;50.084;14.468;2024-01-16T09:36:52;97862.63;;;1.73;59.95
81057;BME280;70563;50.084;14.468;2024-01-16T09:39:17;97861.34;;;1.95;59.42
81057;BME280;70563;50.084;14.468;2024-01-16T09:41:44;97870.72;;;1.88;60.16
81057;BME280;70563;50.084;14.468;2024-01-16T09:44:10;97873.47;;;1.87;60.17
81057;BME280;70563;50.084;14.468;2024-01-16T09:46:37;97874.28;;;1.69;59.80
81057;BME280;70563;50.084;14.468;2024-01-16T09:49:05;97869.38;;;1.66;60.14
81057;BME280;70563;50.084;14.468;2024-01-16T09:51:30;97873.59;;;1.85;60.00
81057;BME280;70563;50.084;14.468;2024-01-16T09:53:56;97878.00;;;2.03;59.06
81057;BME280;70563;50.084;14.468;2024-01-16T09:56:22;97876.97;;;2.13;58.85
81057;BME280;70563;50.084;14.468;2024-01-16T09:59:08;97877.63;;;1.97;58.79
81057;BME280;70563;50.084;14.468;2024-01-16T10:01:34;97874.56;;;2.38;58.33
81057;BME280;70563;50.084;14.468;2024-01-16T10:04:00;97875.19;;;2.84;56.69
81057;BME280;70563;50.084;14.468;2024-01-16T10:06:30;97875.03;;;3.19;55.44
81057;BME280;70563;50.084;14.468;2024-01-16T10:08:56;97867.22;;;3.11;56.01
81057;BME280;70563;50.084;14.468;2024-01-16T10:11:22;97869.34;;;2.82;56.42
81057;BME280;70563;50.084;14.468;2024-01-16T10:13:47;97869.16;;;2.83;56.40
81057;BME280;70563;50.084;14.468;2024-01-16T10:16:13;97876.88;;;2.93;55.51
81057;BME280;70563;50.084;14.468;2024-01-16T10:18:38;97865.09;;;2.37;56.98
81057;BME280;70563;50.084;14.468;2024-01-16T10:21:04;97874.84;;;2.53;55.39
81057;BME280;70563;50.084;14.468;2024-01-16T10:23:31;97868.50;;;2.55;55.63
81057;BME280;70563;50.084;14.468;2024-01-16T10:28:39;97863.53;;;2.70;54.72
81057;BME280;70563;50.084;14.468;2024-01-16T10:31:08;97870.59;;;2.78;54.65
81057;BME280;70563;50.084;14.468;2024-01-16T10:33:33;97866.50;;;3.01;53.91
81057;BME280;70563;50.084;14.468;2024-01-16T10:36:12;97863.22;;;2.99;53.78
81057;BME280;70563;50.084;14.468;2024-01-16T10:38:39;97861.06;;;3.79;51.66
81057;BME280;70563;50.084;14.468;2024-01-16T10:41:16;97862.81;;;5.01;48.76
81057;BME280;70563;50.084;14.468;2024-01-16T10:44:03;97866.81;;;5.28;46.94
81057;BME280;70563;50.084;14.468;2024-01-16T10:46:29;97861.75;;;5.89;46.32
81057;BME280;70563;50.084;14.468;2024-01-16T10:49:02;97860.56;;;6.60;44.17
81057;BME280;70563;50.084;14.468;2024-01-16T10:51:29;97849.94;;;6.39;43.50
81057;BME280;70563;50.084;14.468;2024-01-16T10:54:02;97866.50;;;6.16;43.49
81057;BME280;70563;50.084;14.468;2024-01-16T10:56:31;97863.03;;;5.31;45.44
81057;BME280;70563;50.084;14.468;2024-01-16T10:59:12;97872.69;;;4.66;47.57
81057;BME280;70563;50.084;14.468;2024-01-16T11:01:43;97870.75;;;4.03;49.40
81057;BME280;70563;50.084;14.468;2024-01-16T11:04:12;97880.88;;;4.31;49.69
81057;BME280;70563;50.084;14.468;2024-01-16T11:06:37;97869.44;;;4.15;49.84
81057;BME280;70563;50.084;14.468;2024-01-16T11:09:04;97869.38;;;4.97;46.95
81057;BME280;70563;50.084;14.468;2024-01-16T11:11:30;97853.00;;;6.65;43.75
81057;BME280;70563;50.084;14.468;2024-01-16T11:13:57;97853.09;;;7.46;41.29
81057;BME280;70563;50.084;14.468;2024-01-16T11:16:22;97856.69;;;6.56;43.36
81057;BME280;70563;50.084;14.468;2024-01-16T11:18:48;97851.34;;;6.49;43.21
81057;BME280;70563;50.084;14.468;2024-01-16T11:21:15;97851.84;;;7.12;41.03
81057;BME280;70563;50.084;14.468;2024-01-16T11:23:41;97856.34;;;5.59;44.38
81057;BME280;70563;50.084;14.468;2024-01-16T11:26:27;97856.84;;;4.43;46.16
81057;BME280;70563;50.084;14.468;2024-01-16T11:28:54;97869.75;;;4.12;48.35
81057;BME280;70563;50.084;14.468;2024-01-16T11:31:35;97858.94;;;3.83;48.38
81057;BME280;70563;50.084;14.468;2024-01-16T11:34:04;97868.09;;;2.94;50.93
81057;BME280;70563;50.084;14.468;2024-01-16T11:36:52;97861.75;;;2.96;50.91
81057;BME280;70563;50.084;14.468;2024-01-16T11:39:21;97865.16;;;2.45;51.96
81057;BME280;70563;50.084;14.468;2024-01-16T11:41:54;97875.34;;;2.56;51.87
81057;BME280;70563;50.084;14.468;2024-01-16T11:47:05;97870.03;;;2.66;51.39
81057;BME280;70563;50.084;14.468;2024-01-16T11:49:30;97875.13;;;2.49;51.83
81057;BME280;70563;50.084;14.468;2024-01-16T11:51:57;97869.09;;;2.49;51.86
81057;BME280;70563;50.084;14.468;2024-01-16T11:54:23;97866.97;;;2.44;52.39
81057;BME280;70563;50.084;14.468;2024-01-16T11:57:06;97858.88;;;2.30;52.08
81057;BME280;70563;50.084;14.468;2024-01-16T12:00:00;97859.31;;;2.69;51.48
81057;BME280;70563;50.084;14.468;2024-01-16T12:05:12;97854.75;;;2.71;51.64
81057;BME280;70563;50.084;14.468;2024-01-16T12:07:48;97853.97;;;2.26;53.11
81057;BME280;70563;50.084;14.468;2024-01-16T12:10:15;97857.22;;;2.29;53.24
81057;BME280;70563;50.084;14.468;2024-01-16T12:12:42;97854.50;;;2.12;53.58
81057;BME280;70563;50.084;14.468;2024-01-16T12:15:16;97854.78;;;2.27;53.07
81057;BME280;70563;50.084;14.468;2024-01-16T12:17:58;97856.06;;;2.05;53.33
81057;BME280;70563;50.084;14.468;2024-01-16T12:20:27;97856.44;;;2.10;53.40
81057;BME280;70563;50.084;14.468;2024-01-16T12:23:03;97842.22;;;2.48;52.61
81057;BME280;70563;50.084;14.468;2024-01-16T12:25:34;97847.44;;;2.48;53.43
81057;BME280;70563;50.084;14.468;2024-01-16T12:30:30;97848.53;;;2.20;53.77
81057;BME280;70563;50.084;14.468;2024-01-16T12:33:09;97853.16;;;2.26;53.25
81057;BME280;70563;50.084;14.468;2024-01-16T12:35:39;97858.78;;;2.39;53.35
81057;BME280;70563;50.084;14.468;2024-01-16T12:38:06;97847.53;;;2.91;51.42
81057;BME280;70563;50.084;14.468;2024-01-16T12:40:35;97842.19;;;3.00;50.12
81057;BME280;70563;50.084;14.468;2024-01-16T12:43:02;97843.16;;;2.65;51.46
81057;BME280;70563;50.084;14.468;2024-01-16T12:45:28;97839.84;;;2.55;51.66
81057;BME280;70563;50.084;14.468;2024-01-16T12:47:54;97850.56;;;2.52;52.09
81057;BME280;70563;50.084;14.468;2024-01-16T12:50:23;97845.41;;;2.34;52.59
81057;BME280;70563;50.084;14.468;2024-01-16T12:52:50;97846.28;;;2.43;52.32
81057;BME280;70563;50.084;14.468;2024-01-16T12:55:25;97841.19;;;2.41;52.55
81057;BME280;70563;50.084;14.468;2024-01-16T12:58:20;97842.63;;;2.36;52.54
81057;BME280;70563;50.084;14.468;2024-01-16T13:00:47;97846.22;;;2.61;52.34